sensor_id;sensor_type;location;lat;lon;timestamp;P1;durP1;ratioP1;P2;durP2;ratioP2
25615;SDS011;13482;48.234;13.006;2023-08-24T00:02:17;2.58;;;2.22;;
25615;SDS011;13482;48.234;13.006;2023-08-24T00:04:45;2.50;;;2.10;;
25615;SDS011;13482;48.234;13.006;2023-08-24T00:07:12;2.90;;;1.70;;
25615;SDS011;13482;48.234;13.006;2023-08-24T00:09:39;2.83;;;1.98;;
25615;SDS011;13482;48.234;13.006;2023-08-24T00:12:07;1.70;;;1.35;;
25615;SDS011;13482;48.234;13.006;2023-08-24T00:14:34;3.47;;;2.03;;
25615;SDS011;13482;48.234;13.006;2023-08-24T00:17:01;2.38;;;2.05;;
25615;SDS011;13482;48.234;13.006;2023-08-24T00:19:29;3.45;;;1.92;;
25615;SDS011;13482;48.234;13.006;2023-08-24T00:21:56;3.42;;;2.25;;
25615;SDS011;13482;48.234;13.006;2023-08-24T00:24:23;3.72;;;2.55;;
25615;SDS011;13482;48.234;13.006;2023-08-24T00:26:51;2.58;;;2.38;;
25615;SDS011;13482;48.234;13.006;2023-08-24T00:29:18;3.67;;;2.35;;
25615;SDS011;13482;48.234;13.006;2023-08-24T00:31:45;2.90;;;2.58;;
25615;SDS011;13482;48.234;13.006;2023-08-24T00:34:13;4.07;;;2.67;;
25615;SDS011;13482;48.234;13.006;2023-08-24T00:36:41;2.67;;;2.20;;
25615;SDS011;13482;48.234;13.006;2023-08-24T00:39:09;2.42;;;2.22;;
25615;SDS011;13482;48.234;13.006;2023-08-24T00:41:36;2.97;;;2.25;;
25615;SDS011;13482;48.234;13.006;2023-08-24T00:44:04;2.00;;;1.60;;
25615;SDS011;13482;48.234;13.006;2023-08-24T00:46:34;1.88;;;1.60;;
25615;SDS011;13482;48.234;13.006;2023-08-24T00:49:01;2.60;;;1.95;;
25615;SDS011;13482;48.234;13.006;2023-08-24T00:51:29;4.45;;;2.35;;
25615;SDS011;13482;48.234;13.006;2023-08-24T00:53:56;2.72;;;2.28;;
25615;SDS011;13482;48.234;13.006;2023-08-24T00:56:24;3.72;;;2.10;;
25615;SDS011;13482;48.234;13.006;2023-08-24T00:58:51;5.38;;;2.58;;
25615;SDS011;13482;48.234;13.006;2023-08-24T01:01:21;2.53;;;2.33;;
25615;SDS011;13482;48.234;13.006;2023-08-24T01:03:51;2.30;;;2.00;;
25615;SDS011;13482;48.234;13.006;2023-08-24T01:06:19;3.08;;;2.22;;
25615;SDS011;13482;48.234;13.006;2023-08-24T01:08:46;4.40;;;2.50;;
25615;SDS011;13482;48.234;13.006;2023-08-24T01:17:09;2.67;;;2.28;;
25615;SDS011;13482;48.234;13.006;2023-08-24T01:19:44;2.30;;;2.00;;
25615;SDS011;13482;48.234;13.006;2023-08-24T01:25:17;3.53;;;2.53;;
25615;SDS011;13482;48.234;13.006;2023-08-24T01:27:56;2.83;;;2.33;;
25615;SDS011;13482;48.234;13.006;2023-08-24T01:30:25;2.55;;;2.08;;
25615;SDS011;13482;48.234;13.006;2023-08-24T01:32:53;3.20;;;2.08;;
25615;SDS011;13482;48.234;13.006;2023-08-24T01:35:20;3.13;;;2.17;;
25615;SDS011;13482;48.234;13.006;2023-08-24T01:37:47;2.63;;;2.42;;
25615;SDS011;13482;48.234;13.006;2023-08-24T01:43:07;4.35;;;2.65;;
25615;SDS011;13482;48.234;13.006;2023-08-24T01:45:36;2.33;;;1.80;;
25615;SDS011;13482;48.234;13.006;2023-08-24T01:48:05;2.10;;;1.70;;
25615;SDS011;13482;48.234;13.006;2023-08-24T01:50:33;3.08;;;1.50;;
25615;SDS011;13482;48.234;13.006;2023-08-24T01:53:02;1.75;;;1.48;;
25615;SDS011;13482;48.234;13.006;2023-08-24T01:55:30;1.88;;;1.70;;
25615;SDS011;13482;48.234;13.006;2023-08-24T01:57:57;2.55;;;2.08;;
25615;SDS011;13482;48.234;13.006;2023-08-24T02:00:25;1.75;;;1.38;;
25615;SDS011;13482;48.234;13.006;2023-08-24T02:02:53;2.00;;;1.63;;
25615;SDS011;13482;48.234;13.006;2023-08-24T02:05:21;2.05;;;1.58;;
25615;SDS011;13482;48.234;13.006;2023-08-24T02:07:50;2.15;;;1.80;;
25615;SDS011;13482;48.234;13.006;2023-08-24T02:10:18;4.68;;;2.30;;
25615;SDS011;13482;48.234;13.006;2023-08-24T02:12:45;2.70;;;2.25;;
25615;SDS011;13482;48.234;13.006;2023-08-24T02:15:12;2.40;;;2.20;;
25615;SDS011;13482;48.234;13.006;2023-08-24T02:17:40;2.15;;;1.95;;
25615;SDS011;13482;48.234;13.006;2023-08-24T02:20:07;1.98;;;1.60;;
25615;SDS011;13482;48.234;13.006;2023-08-24T02:22:36;1.50;;;1.30;;
25615;SDS011;13482;48.234;13.006;2023-08-24T02:25:05;2.25;;;1.67;;
25615;SDS011;13482;48.234;13.006;2023-08-24T02:27:32;2.00;;;1.55;;
25615;SDS011;13482;48.234;13.006;2023-08-24T02:30:00;1.67;;;1.42;;
25615;SDS011;13482;48.234;13.006;2023-08-24T02:32:27;2.00;;;1.70;;
25615;SDS011;13482;48.234;13.006;2023-08-24T02:34:55;1.80;;;1.50;;
25615;SDS011;13482;48.234;13.006;2023-08-24T02:37:23;1.90;;;1.70;;
25615;SDS011;13482;48.234;13.006;2023-08-24T02:39:50;4.93;;;2.03;;
25615;SDS011;13482;48.234;13.006;2023-08-24T02:42:17;3.45;;;2.13;;
25615;SDS011;13482;48.234;13.006;2023-08-24T02:44:45;2.90;;;2.42;;
25615;SDS011;13482;48.234;13.006;2023-08-24T02:47:12;2.55;;;2.20;;
25615;SDS011;13482;48.234;13.006;2023-08-24T02:49:41;3.47;;;2.35;;
25615;SDS011;13482;48.234;13.006;2023-08-24T02:52:09;3.55;;;2.50;;
25615;SDS011;13482;48.234;13.006;2023-08-24T02:54:36;2.40;;;2.20;;
25615;SDS011;13482;48.234;13.006;2023-08-24T02:57:03;2.70;;;2.45;;
25615;SDS011;13482;48.234;13.006;2023-08-24T02:59:31;2.53;;;2.30;;
25615;SDS011;13482;48.234;13.006;2023-08-24T03:01:58;3.17;;;2.58;;
25615;SDS011;13482;48.234;13.006;2023-08-24T03:04:25;3.38;;;2.45;;
25615;SDS011;13482;48.234;13.006;2023-08-24T03:06:53;2.55;;;2.35;;
25615;SDS011;13482;48.234;13.006;2023-08-24T03:09:20;2.65;;;2.45;;
25615;SDS011;13482;48.234;13.006;2023-08-24T03:11:48;3.15;;;2.38;;
25615;SDS011;13482;48.234;13.006;2023-08-24T03:14:15;2.65;;;2.30;;
25615;SDS011;13482;48.234;13.006;2023-08-24T03:16:42;2.50;;;2.30;;
25615;SDS011;13482;48.234;13.006;2023-08-24T03:19:10;2.35;;;2.15;;
25615;SDS011;13482;48.234;13.006;2023-08-24T03:21:38;2.60;;;2.08;;
25615;SDS011;13482;48.234;13.006;2023-08-24T03:24:06;3.25;;;2.40;;
25615;SDS011;13482;48.234;13.006;2023-08-24T03:26:33;2.90;;;1.90;;
25615;SDS011;13482;48.234;13.006;2023-08-24T03:29:00;2.10;;;1.90;;
25615;SDS011;13482;48.234;13.006;2023-08-24T03:31:28;1.90;;;1.60;;
25615;SDS011;13482;48.234;13.006;2023-08-24T03:33:55;2.35;;;2.13;;
25615;SDS011;13482;48.234;13.006;2023-08-24T03:36:22;2.40;;;2.20;;
25615;SDS011;13482;48.234;13.006;2023-08-24T03:38:50;2.17;;;1.65;;
25615;SDS011;13482;48.234;13.006;2023-08-24T03:41:17;2.00;;;1.80;;
25615;SDS011;13482;48.234;13.006;2023-08-24T03:43:44;1.70;;;1.60;;
25615;SDS011;13482;48.234;13.006;2023-08-24T03:46:12;2.58;;;1.85;;
25615;SDS011;13482;48.234;13.006;2023-08-24T03:48:39;1.67;;;1.30;;
25615;SDS011;13482;48.234;13.006;2023-08-24T03:51:07;1.58;;;1.48;;
25615;SDS011;13482;48.234;13.006;2023-08-24T03:53:34;1.90;;;1.60;;
25615;SDS011;13482;48.234;13.006;2023-08-24T03:56:01;2.05;;;1.52;;
25615;SDS011;13482;48.234;13.006;2023-08-24T03:58:29;3.33;;;1.70;;
25615;SDS011;13482;48.234;13.006;2023-08-24T04:00:56;1.90;;;1.20;;
25615;SDS011;13482;48.234;13.006;2023-08-24T04:03:24;1.50;;;1.20;;
25615;SDS011;13482;48.234;13.006;2023-08-24T04:05:51;1.95;;;1.52;;
25615;SDS011;13482;48.234;13.006;2023-08-24T04:08:18;2.88;;;1.60;;
25615;SDS011;13482;48.234;13.006;2023-08-24T04:10:46;2.50;;;1.23;;
25615;SDS011;13482;48.234;13.006;2023-08-24T04:13:13;1.40;;;1.15;;
25615;SDS011;13482;48.234;13.006;2023-08-24T04:15:40;1.73;;;1.35;;
25615;SDS011;13482;48.234;13.006;2023-08-24T04:18:08;1.50;;;1.20;;
25615;SDS011;13482;48.234;13.006;2023-08-24T04:20:36;1.90;;;1.60;;
25615;SDS011;13482;48.234;13.006;2023-08-24T04:23:03;1.77;;;1.60;;
25615;SDS011;13482;48.234;13.006;2023-08-24T04:25:33;2.80;;;1.50;;
25615;SDS011;13482;48.234;13.006;2023-08-24T04:28:00;1.83;;;1.40;;
25615;SDS011;13482;48.234;13.006;2023-08-24T04:30:27;2.25;;;1.48;;
25615;SDS011;13482;48.234;13.006;2023-08-24T04:32:55;1.67;;;1.42;;
25615;SDS011;13482;48.234;13.006;2023-08-24T04:35:25;1.80;;;1.42;;
25615;SDS011;13482;48.234;13.006;2023-08-24T04:37:53;1.50;;;1.35;;
25615;SDS011;13482;48.234;13.006;2023-08-24T04:40:21;1.52;;;1.23;;
25615;SDS011;13482;48.234;13.006;2023-08-24T04:42:51;2.25;;;1.85;;
25615;SDS011;13482;48.234;13.006;2023-08-24T04:47:48;2.13;;;1.70;;
25615;SDS011;13482;48.234;13.006;2023-08-24T04:50:16;3.53;;;2.00;;
25615;SDS011;13482;48.234;13.006;2023-08-24T04:52:43;2.63;;;2.13;;
25615;SDS011;13482;48.234;13.006;2023-08-24T04:55:10;3.58;;;2.20;;
25615;SDS011;13482;48.234;13.006;2023-08-24T04:57:38;3.00;;;2.28;;
25615;SDS011;13482;48.234;13.006;2023-08-24T05:00:06;2.92;;;2.05;;
25615;SDS011;13482;48.234;13.006;2023-08-24T05:02:34;2.30;;;2.10;;
25615;SDS011;13482;48.234;13.006;2023-08-24T05:05:01;2.20;;;2.00;;
25615;SDS011;13482;48.234;13.006;2023-08-24T05:07:29;2.75;;;2.20;;
25615;SDS011;13482;48.234;13.006;2023-08-24T05:09:57;2.63;;;2.30;;
25615;SDS011;13482;48.234;13.006;2023-08-24T05:12:24;2.63;;;2.22;;
25615;SDS011;13482;48.234;13.006;2023-08-24T05:14:52;2.55;;;2.30;;
25615;SDS011;13482;48.234;13.006;2023-08-24T05:17:20;2.58;;;2.22;;
25615;SDS011;13482;48.234;13.006;2023-08-24T05:19:51;1.92;;;1.65;;
25615;SDS011;13482;48.234;13.006;2023-08-24T05:22:20;3.38;;;2.17;;
25615;SDS011;13482;48.234;13.006;2023-08-24T05:24:48;3.20;;;2.38;;
25615;SDS011;13482;48.234;13.006;2023-08-24T05:27:15;2.60;;;2.10;;
25615;SDS011;13482;48.234;13.006;2023-08-24T05:29:43;3.78;;;2.90;;
25615;SDS011;13482;48.234;13.006;2023-08-24T05:32:10;2.63;;;2.30;;
25615;SDS011;13482;48.234;13.006;2023-08-24T05:34:37;3.97;;;2.38;;
25615;SDS011;13482;48.234;13.006;2023-08-24T05:37:04;2.60;;;2.33;;
25615;SDS011;13482;48.234;13.006;2023-08-24T05:39:32;3.17;;;2.45;;
25615;SDS011;13482;48.234;13.006;2023-08-24T05:42:00;3.50;;;2.35;;
25615;SDS011;13482;48.234;13.006;2023-08-24T05:44:27;3.17;;;2.75;;
25615;SDS011;13482;48.234;13.006;2023-08-24T05:46:54;3.70;;;2.85;;
25615;SDS011;13482;48.234;13.006;2023-08-24T05:49:22;2.70;;;2.50;;
25615;SDS011;13482;48.234;13.006;2023-08-24T05:51:50;3.88;;;2.45;;
25615;SDS011;13482;48.234;13.006;2023-08-24T05:54:18;3.72;;;2.88;;
25615;SDS011;13482;48.234;13.006;2023-08-24T05:56:46;2.50;;;2.13;;
25615;SDS011;13482;48.234;13.006;2023-08-24T05:59:14;2.72;;;2.45;;
25615;SDS011;13482;48.234;13.006;2023-08-24T06:01:42;2.80;;;2.30;;
25615;SDS011;13482;48.234;13.006;2023-08-24T06:04:09;2.65;;;2.20;;
25615;SDS011;13482;48.234;13.006;2023-08-24T06:06:37;2.83;;;2.30;;
25615;SDS011;13482;48.234;13.006;2023-08-24T06:09:04;3.28;;;2.88;;
25615;SDS011;13482;48.234;13.006;2023-08-24T06:11:35;3.42;;;2.60;;
25615;SDS011;13482;48.234;13.006;2023-08-24T06:14:03;3.35;;;2.70;;
25615;SDS011;13482;48.234;13.006;2023-08-24T06:16:30;2.97;;;2.65;;
25615;SDS011;13482;48.234;13.006;2023-08-24T06:18:58;3.20;;;2.88;;
25615;SDS011;13482;48.234;13.006;2023-08-24T06:21:25;3.80;;;3.00;;
25615;SDS011;13482;48.234;13.006;2023-08-24T06:23:53;2.88;;;2.60;;
25615;SDS011;13482;48.234;13.006;2023-08-24T06:26:20;3.45;;;2.70;;
25615;SDS011;13482;48.234;13.006;2023-08-24T06:28:48;4.55;;;2.88;;
25615;SDS011;13482;48.234;13.006;2023-08-24T06:31:15;3.67;;;3.00;;
25615;SDS011;13482;48.234;13.006;2023-08-24T06:33:42;3.50;;;2.83;;
25615;SDS011;13482;48.234;13.006;2023-08-24T06:36:10;3.92;;;3.00;;
25615;SDS011;13482;48.234;13.006;2023-08-24T06:38:38;3.60;;;3.00;;
25615;SDS011;13482;48.234;13.006;2023-08-24T06:41:06;3.67;;;3.30;;
25615;SDS011;13482;48.234;13.006;2023-08-24T06:43:38;4.15;;;2.80;;
25615;SDS011;13482;48.234;13.006;2023-08-24T06:46:06;4.18;;;3.35;;
25615;SDS011;13482;48.234;13.006;2023-08-24T06:48:34;3.30;;;3.00;;
25615;SDS011;13482;48.234;13.006;2023-08-24T06:51:03;3.85;;;3.30;;
25615;SDS011;13482;48.234;13.006;2023-08-24T06:53:32;3.53;;;3.17;;
25615;SDS011;13482;48.234;13.006;2023-08-24T06:56:00;3.40;;;3.00;;
25615;SDS011;13482;48.234;13.006;2023-08-24T06:58:27;3.33;;;2.92;;
25615;SDS011;13482;48.234;13.006;2023-08-24T07:00:54;3.40;;;3.10;;
25615;SDS011;13482;48.234;13.006;2023-08-24T07:03:24;3.67;;;3.28;;
25615;SDS011;13482;48.234;13.006;2023-08-24T07:05:51;4.93;;;3.17;;
25615;SDS011;13482;48.234;13.006;2023-08-24T07:08:19;3.72;;;3.28;;
25615;SDS011;13482;48.234;13.006;2023-08-24T07:10:46;3.17;;;2.88;;
25615;SDS011;13482;48.234;13.006;2023-08-24T07:13:13;4.10;;;3.63;;
25615;SDS011;13482;48.234;13.006;2023-08-24T07:15:41;5.47;;;3.60;;
25615;SDS011;13482;48.234;13.006;2023-08-24T07:18:09;3.97;;;3.58;;
25615;SDS011;13482;48.234;13.006;2023-08-24T07:20:36;4.45;;;3.58;;
25615;SDS011;13482;48.234;13.006;2023-08-24T07:23:04;3.97;;;3.58;;
25615;SDS011;13482;48.234;13.006;2023-08-24T07:25:31;4.10;;;3.67;;
25615;SDS011;13482;48.234;13.006;2023-08-24T07:28:00;4.53;;;3.60;;
25615;SDS011;13482;48.234;13.006;2023-08-24T07:30:30;4.55;;;3.40;;
25615;SDS011;13482;48.234;13.006;2023-08-24T07:33:01;4.32;;;3.60;;
25615;SDS011;13482;48.234;13.006;2023-08-24T07:35:32;3.97;;;3.60;;
25615;SDS011;13482;48.234;13.006;2023-08-24T07:37:59;4.15;;;3.50;;
25615;SDS011;13482;48.234;13.006;2023-08-24T07:40:28;4.25;;;3.55;;
25615;SDS011;13482;48.234;13.006;2023-08-24T07:42:55;4.28;;;3.25;;
25615;SDS011;13482;48.234;13.006;2023-08-24T07:45:23;3.85;;;3.35;;
25615;SDS011;13482;48.234;13.006;2023-08-24T07:47:51;4.15;;;3.60;;
25615;SDS011;13482;48.234;13.006;2023-08-24T07:50:19;3.90;;;3.50;;
25615;SDS011;13482;48.234;13.006;2023-08-24T07:52:48;4.30;;;3.90;;
25615;SDS011;13482;48.234;13.006;2023-08-24T07:55:16;4.00;;;3.60;;
25615;SDS011;13482;48.234;13.006;2023-08-24T07:57:43;3.90;;;3.45;;
25615;SDS011;13482;48.234;13.006;2023-08-24T08:00:10;4.03;;;3.58;;
25615;SDS011;13482;48.234;13.006;2023-08-24T08:02:40;4.10;;;3.45;;
25615;SDS011;13482;48.234;13.006;2023-08-24T08:05:08;3.95;;;3.58;;
25615;SDS011;13482;48.234;13.006;2023-08-24T08:07:39;3.90;;;3.50;;
25615;SDS011;13482;48.234;13.006;2023-08-24T08:10:06;4.55;;;4.10;;
25615;SDS011;13482;48.234;13.006;2023-08-24T08:12:34;5.43;;;3.83;;
25615;SDS011;13482;48.234;13.006;2023-08-24T08:15:02;4.18;;;3.78;;
25615;SDS011;13482;48.234;13.006;2023-08-24T08:17:30;4.53;;;4.07;;
25615;SDS011;13482;48.234;13.006;2023-08-24T08:20:00;3.97;;;3.58;;
25615;SDS011;13482;48.234;13.006;2023-08-24T08:22:29;3.80;;;3.42;;
25615;SDS011;13482;48.234;13.006;2023-08-24T08:24:56;4.00;;;3.60;;
25615;SDS011;13482;48.234;13.006;2023-08-24T08:27:24;4.07;;;3.67;;
25615;SDS011;13482;48.234;13.006;2023-08-24T08:29:51;4.15;;;3.67;;
25615;SDS011;13482;48.234;13.006;2023-08-24T08:32:19;3.92;;;3.30;;
25615;SDS011;13482;48.234;13.006;2023-08-24T08:34:46;5.03;;;3.53;;
25615;SDS011;13482;48.234;13.006;2023-08-24T08:37:13;5.03;;;3.60;;
25615;SDS011;13482;48.234;13.006;2023-08-24T08:39:41;3.83;;;3.38;;
25615;SDS011;13482;48.234;13.006;2023-08-24T08:42:13;4.22;;;3.83;;
25615;SDS011;13482;48.234;13.006;2023-08-24T08:44:41;4.38;;;3.53;;
25615;SDS011;13482;48.234;13.006;2023-08-24T08:47:11;3.40;;;3.10;;
25615;SDS011;13482;48.234;13.006;2023-08-24T08:49:39;3.80;;;3.38;;
25615;SDS011;13482;48.234;13.006;2023-08-24T08:52:10;3.78;;;3.35;;
25615;SDS011;13482;48.234;13.006;2023-08-24T08:54:37;3.20;;;2.90;;
25615;SDS011;13482;48.234;13.006;2023-08-24T08:57:05;3.28;;;2.97;;
25615;SDS011;13482;48.234;13.006;2023-08-24T08:59:33;3.72;;;3.33;;
25615;SDS011;13482;48.234;13.006;2023-08-24T09:02:03;3.17;;;2.88;;
25615;SDS011;13482;48.234;13.006;2023-08-24T09:04:32;3.10;;;2.75;;
25615;SDS011;13482;48.234;13.006;2023-08-24T09:07:02;3.17;;;2.85;;
25615;SDS011;13482;48.234;13.006;2023-08-24T09:09:37;4.28;;;2.67;;
25615;SDS011;13482;48.234;13.006;2023-08-24T09:12:06;7.18;;;2.90;;
25615;SDS011;13482;48.234;13.006;2023-08-24T09:14:34;3.08;;;2.55;;
25615;SDS011;13482;48.234;13.006;2023-08-24T09:17:02;2.75;;;2.47;;
25615;SDS011;13482;48.234;13.006;2023-08-24T09:19:30;3.35;;;2.58;;
25615;SDS011;13482;48.234;13.006;2023-08-24T09:22:02;3.40;;;2.70;;
25615;SDS011;13482;48.234;13.006;2023-08-24T09:24:35;4.18;;;2.50;;
25615;SDS011;13482;48.234;13.006;2023-08-24T09:27:16;3.22;;;2.30;;
25615;SDS011;13482;48.234;13.006;2023-08-24T09:29:52;3.08;;;2.40;;
25615;SDS011;13482;48.234;13.006;2023-08-24T09:32:23;3.72;;;2.42;;
25615;SDS011;13482;48.234;13.006;2023-08-24T09:34:54;2.60;;;2.05;;
25615;SDS011;13482;48.234;13.006;2023-08-24T09:37:23;4.18;;;2.85;;
25615;SDS011;13482;48.234;13.006;2023-08-24T09:39:51;2.80;;;2.17;;
25615;SDS011;13482;48.234;13.006;2023-08-24T09:42:38;2.30;;;2.10;;
25615;SDS011;13482;48.234;13.006;2023-08-24T09:45:14;3.35;;;2.35;;
25615;SDS011;13482;48.234;13.006;2023-08-24T09:47:51;2.42;;;2.00;;
25615;SDS011;13482;48.234;13.006;2023-08-24T09:50:21;2.00;;;1.80;;
25615;SDS011;13482;48.234;13.006;2023-08-24T09:52:49;1.83;;;1.58;;
25615;SDS011;13482;48.234;13.006;2023-08-24T09:55:23;2.67;;;1.90;;
25615;SDS011;13482;48.234;13.006;2023-08-24T09:57:53;2.97;;;1.98;;
25615;SDS011;13482;48.234;13.006;2023-08-24T10:00:23;2.28;;;2.08;;
25615;SDS011;13482;48.234;13.006;2023-08-24T10:02:53;3.40;;;2.30;;
25615;SDS011;13482;48.234;13.006;2023-08-24T10:05:25;3.22;;;1.90;;
25615;SDS011;13482;48.234;13.006;2023-08-24T10:08:10;2.63;;;2.17;;
25615;SDS011;13482;48.234;13.006;2023-08-24T10:10:39;2.58;;;1.95;;
25615;SDS011;13482;48.234;13.006;2023-08-24T10:13:14;2.95;;;2.08;;
25615;SDS011;13482;48.234;13.006;2023-08-24T10:15:50;3.58;;;2.35;;
25615;SDS011;13482;48.234;13.006;2023-08-24T10:18:18;2.38;;;2.15;;
25615;SDS011;13482;48.234;13.006;2023-08-24T10:20:47;2.35;;;2.10;;
25615;SDS011;13482;48.234;13.006;2023-08-24T10:23:15;2.72;;;2.42;;
25615;SDS011;13482;48.234;13.006;2023-08-24T10:25:43;2.95;;;2.40;;
25615;SDS011;13482;48.234;13.006;2023-08-24T10:28:13;3.20;;;2.38;;
25615;SDS011;13482;48.234;13.006;2023-08-24T10:30:43;2.60;;;2.38;;
25615;SDS011;13482;48.234;13.006;2023-08-24T10:33:13;2.72;;;2.25;;
25615;SDS011;13482;48.234;13.006;2023-08-24T10:35:42;3.70;;;2.30;;
25615;SDS011;13482;48.234;13.006;2023-08-24T10:38:27;2.40;;;2.20;;
25615;SDS011;13482;48.234;13.006;2023-08-24T10:41:03;3.00;;;2.15;;
25615;SDS011;13482;48.234;13.006;2023-08-24T10:43:36;2.67;;;2.25;;
25615;SDS011;13482;48.234;13.006;2023-08-24T10:46:11;3.88;;;2.50;;
25615;SDS011;13482;48.234;13.006;2023-08-24T10:54:00;2.85;;;2.42;;
25615;SDS011;13482;48.234;13.006;2023-08-24T10:59:13;2.53;;;2.33;;
25615;SDS011;13482;48.234;13.006;2023-08-24T11:01:53;2.95;;;2.50;;
25615;SDS011;13482;48.234;13.006;2023-08-24T11:04:22;2.97;;;2.38;;
25615;SDS011;13482;48.234;13.006;2023-08-24T11:06:59;2.70;;;2.47;;
25615;SDS011;13482;48.234;13.006;2023-08-24T11:09:46;2.53;;;2.22;;
25615;SDS011;13482;48.234;13.006;2023-08-24T11:12:16;3.83;;;3.15;;
25615;SDS011;13482;48.234;13.006;2023-08-24T11:14:50;4.07;;;2.58;;
25615;SDS011;13482;48.234;13.006;2023-08-24T11:17:29;2.58;;;2.28;;
25615;SDS011;13482;48.234;13.006;2023-08-24T11:20:00;2.63;;;2.33;;
25615;SDS011;13482;48.234;13.006;2023-08-24T11:22:31;2.15;;;1.95;;
25615;SDS011;13482;48.234;13.006;2023-08-24T11:24:59;2.80;;;2.35;;
25615;SDS011;13482;48.234;13.006;2023-08-24T11:27:27;3.38;;;2.53;;
25615;SDS011;13482;48.234;13.006;2023-08-24T11:29:59;2.67;;;2.20;;
25615;SDS011;13482;48.234;13.006;2023-08-24T11:32:28;2.90;;;2.38;;
25615;SDS011;13482;48.234;13.006;2023-08-24T11:34:55;2.50;;;2.30;;
25615;SDS011;13482;48.234;13.006;2023-08-24T11:37:22;2.67;;;1.98;;
25615;SDS011;13482;48.234;13.006;2023-08-24T11:39:50;2.38;;;2.00;;
25615;SDS011;13482;48.234;13.006;2023-08-24T11:42:18;3.00;;;2.30;;
25615;SDS011;13482;48.234;13.006;2023-08-24T11:44:45;2.58;;;2.17;;
25615;SDS011;13482;48.234;13.006;2023-08-24T11:47:19;2.50;;;2.30;;
25615;SDS011;13482;48.234;13.006;2023-08-24T11:49:49;2.40;;;2.20;;
25615;SDS011;13482;48.234;13.006;2023-08-24T11:52:17;2.95;;;2.25;;
25615;SDS011;13482;48.234;13.006;2023-08-24T11:54:44;2.95;;;2.30;;
25615;SDS011;13482;48.234;13.006;2023-08-24T11:57:12;2.38;;;2.10;;
25615;SDS011;13482;48.234;13.006;2023-08-24T11:59:39;2.58;;;2.10;;
25615;SDS011;13482;48.234;13.006;2023-08-24T12:02:08;2.78;;;2.20;;
25615;SDS011;13482;48.234;13.006;2023-08-24T12:04:40;3.05;;;2.00;;
25615;SDS011;13482;48.234;13.006;2023-08-24T12:07:13;2.25;;;2.05;;
25615;SDS011;13482;48.234;13.006;2023-08-24T12:12:16;2.30;;;2.00;;
25615;SDS011;13482;48.234;13.006;2023-08-24T12:14:45;2.30;;;1.90;;
25615;SDS011;13482;48.234;13.006;2023-08-24T12:17:15;4.40;;;1.85;;
25615;SDS011;13482;48.234;13.006;2023-08-24T12:19:44;3.17;;;2.00;;
25615;SDS011;13482;48.234;13.006;2023-08-24T12:22:21;2.63;;;2.10;;
25615;SDS011;13482;48.234;13.006;2023-08-24T12:24:48;2.55;;;2.10;;
25615;SDS011;13482;48.234;13.006;2023-08-24T12:27:20;2.50;;;1.92;;
25615;SDS011;13482;48.234;13.006;2023-08-24T12:29:49;4.47;;;2.33;;
25615;SDS011;13482;48.234;13.006;2023-08-24T12:32:17;2.45;;;2.22;;
25615;SDS011;13482;48.234;13.006;2023-08-24T12:34:46;2.70;;;1.98;;
25615;SDS011;13482;48.234;13.006;2023-08-24T12:37:14;2.55;;;1.98;;
25615;SDS011;13482;48.234;13.006;2023-08-24T12:39:42;2.75;;;1.77;;
25615;SDS011;13482;48.234;13.006;2023-08-24T12:42:10;2.97;;;1.75;;
25615;SDS011;13482;48.234;13.006;2023-08-24T12:44:37;2.10;;;1.90;;
25615;SDS011;13482;48.234;13.006;2023-08-24T12:47:04;2.67;;;2.20;;
25615;SDS011;13482;48.234;13.006;2023-08-24T12:49:32;2.35;;;2.00;;
25615;SDS011;13482;48.234;13.006;2023-08-24T12:51:59;2.33;;;1.80;;
25615;SDS011;13482;48.234;13.006;2023-08-24T12:54:26;2.78;;;1.80;;
25615;SDS011;13482;48.234;13.006;2023-08-24T12:56:54;2.08;;;1.85;;
25615;SDS011;13482;48.234;13.006;2023-08-24T12:59:21;2.33;;;1.75;;
25615;SDS011;13482;48.234;13.006;2023-08-24T13:01:49;2.05;;;1.85;;
25615;SDS011;13482;48.234;13.006;2023-08-24T13:04:16;2.25;;;1.92;;
25615;SDS011;13482;48.234;13.006;2023-08-24T13:06:43;2.20;;;1.88;;
25615;SDS011;13482;48.234;13.006;2023-08-24T13:09:11;2.83;;;2.08;;
25615;SDS011;13482;48.234;13.006;2023-08-24T13:11:40;2.17;;;1.73;;
25615;SDS011;13482;48.234;13.006;2023-08-24T13:14:07;2.72;;;2.10;;
25615;SDS011;13482;48.234;13.006;2023-08-24T13:16:35;3.55;;;2.00;;
25615;SDS011;13482;48.234;13.006;2023-08-24T13:19:03;2.35;;;1.88;;
25615;SDS011;13482;48.234;13.006;2023-08-24T13:21:30;2.85;;;1.92;;
25615;SDS011;13482;48.234;13.006;2023-08-24T13:23:58;3.20;;;1.80;;
25615;SDS011;13482;48.234;13.006;2023-08-24T13:26:25;2.78;;;1.90;;
25615;SDS011;13482;48.234;13.006;2023-08-24T13:28:52;2.05;;;1.85;;
25615;SDS011;13482;48.234;13.006;2023-08-24T13:31:20;2.42;;;1.90;;
25615;SDS011;13482;48.234;13.006;2023-08-24T13:33:48;2.80;;;2.15;;
25615;SDS011;13482;48.234;13.006;2023-08-24T13:36:15;2.50;;;2.20;;
25615;SDS011;13482;48.234;13.006;2023-08-24T13:38:43;3.08;;;2.10;;
25615;SDS011;13482;48.234;13.006;2023-08-24T13:41:11;3.08;;;2.20;;
25615;SDS011;13482;48.234;13.006;2023-08-24T13:43:38;4.75;;;2.25;;
25615;SDS011;13482;48.234;13.006;2023-08-24T13:46:06;2.47;;;2.20;;
25615;SDS011;13482;48.234;13.006;2023-08-24T13:48:33;2.38;;;2.13;;
25615;SDS011;13482;48.234;13.006;2023-08-24T13:51:02;3.85;;;2.42;;
25615;SDS011;13482;48.234;13.006;2023-08-24T13:53:29;3.28;;;2.20;;
25615;SDS011;13482;48.234;13.006;2023-08-24T13:55:56;2.63;;;2.20;;
25615;SDS011;13482;48.234;13.006;2023-08-24T13:58:24;4.10;;;2.40;;
25615;SDS011;13482;48.234;13.006;2023-08-24T14:00:55;3.00;;;2.28;;
25615;SDS011;13482;48.234;13.006;2023-08-24T14:03:25;2.80;;;2.10;;
25615;SDS011;13482;48.234;13.006;2023-08-24T14:05:56;3.08;;;2.38;;
25615;SDS011;13482;48.234;13.006;2023-08-24T14:08:24;2.05;;;1.85;;
25615;SDS011;13482;48.234;13.006;2023-08-24T14:10:52;2.55;;;2.17;;
25615;SDS011;13482;48.234;13.006;2023-08-24T14:13:19;2.58;;;2.20;;
25615;SDS011;13482;48.234;13.006;2023-08-24T14:15:47;2.60;;;2.22;;
25615;SDS011;13482;48.234;13.006;2023-08-24T14:18:16;3.13;;;2.22;;
25615;SDS011;13482;48.234;13.006;2023-08-24T14:20:46;3.45;;;2.42;;
25615;SDS011;13482;48.234;13.006;2023-08-24T14:23:14;2.78;;;2.13;;
25615;SDS011;13482;48.234;13.006;2023-08-24T14:25:41;3.90;;;2.50;;
25615;SDS011;13482;48.234;13.006;2023-08-24T14:28:09;2.08;;;1.88;;
25615;SDS011;13482;48.234;13.006;2023-08-24T14:30:38;2.60;;;1.98;;
25615;SDS011;13482;48.234;13.006;2023-08-24T14:33:06;2.38;;;2.17;;
25615;SDS011;13482;48.234;13.006;2023-08-24T14:35:33;2.75;;;2.20;;
25615;SDS011;13482;48.234;13.006;2023-08-24T14:38:01;2.60;;;2.17;;
25615;SDS011;13482;48.234;13.006;2023-08-24T14:40:28;2.22;;;2.03;;
25615;SDS011;13482;48.234;13.006;2023-08-24T14:42:56;3.10;;;2.30;;
25615;SDS011;13482;48.234;13.006;2023-08-24T14:45:23;2.50;;;2.25;;
25615;SDS011;13482;48.234;13.006;2023-08-24T14:47:51;2.97;;;2.30;;
25615;SDS011;13482;48.234;13.006;2023-08-24T14:50:18;4.10;;;2.50;;
25615;SDS011;13482;48.234;13.006;2023-08-24T14:52:46;3.03;;;2.47;;
25615;SDS011;13482;48.234;13.006;2023-08-24T14:55:13;3.58;;;2.55;;
25615;SDS011;13482;48.234;13.006;2023-08-24T14:57:41;3.00;;;2.40;;
25615;SDS011;13482;48.234;13.006;2023-08-24T15:00:08;2.40;;;2.10;;
25615;SDS011;13482;48.234;13.006;2023-08-24T15:02:36;2.95;;;2.30;;
25615;SDS011;13482;48.234;13.006;2023-08-24T15:05:04;2.97;;;2.10;;
25615;SDS011;13482;48.234;13.006;2023-08-24T15:07:32;2.50;;;2.30;;